Time;durP1;ratioP1;P1;durP2;ratioP2;P2;SDS_P1;SDS_P2;PMS_P1;PMS_P2;Temp;Humidity;BMP_temperature;BMP_pressure;BME280_temperature;BME280_humidity;BME280_pressure;Samples;Min_cycle;Max_cycle;Signal;HPM_P1;HPM_P2
2022/09/29 00:00:15;;;;;;;;;;;;;;;-142.36;100.00;58987.19;6335361;22;19918;-43
2022/09/29 00:02:42;;;;;;;;;;;;;;;-142.36;100.00;58987.19;6335136;22;20001;-43
2022/09/29 00:05:09;;;;;;;;;;;;;;;-142.36;100.00;58987.19;6333561;22;19922;-45
2022/09/29 00:07:37;;;;;;;;;;;;;;;-142.36;100.00;58987.19;6335162;22;19918;-41
2022/09/29 00:10:04;;;;;;;;;;;;;;;-142.36;100.00;58987.19;6334717;22;19923;-42
2022/09/29 00:12:31;;;;;;;;;;;;;;;-142.36;100.00;58987.19;6335222;22;20355;-42
2022/09/29 00:15:00;;;;;;;;;;;;;;;-142.36;100.00;58987.19;6332314;22;19918;-42
2022/09/29 00:17:27;;;;;;;;;;;;;;;-142.36;100.00;58987.19;6334797;22;19926;-42
2022/09/29 00:19:54;;;;;;;;;;;;;;;-142.36;100.00;58987.19;6335279;22;20335;-42
2022/09/29 00:22:22;;;;;;;;;;;;;;;-142.36;100.00;58987.19;6332928;22;19945;-42
2022/09/29 00:24:49;;;;;;;;;;;;;;;-142.36;100.00;58987.19;6334758;22;19953;-42
2022/09/29 00:27:16;;;;;;;;;;;;;;;-142.36;100.00;58987.19;6334749;22;19926;-42
2022/09/29 00:29:43;;;;;;;;;;;;;;;-142.36;100.00;58987.19;6334197;22;19918;-43
2022/09/29 00:32:12;;;;;;;;;;;;;;;-142.36;100.00;58987.19;6334089;22;19918;-42
2022/09/29 00:34:39;;;;;;;;;;;;;;;-142.36;100.00;58987.19;6306603;22;19944;-42
2022/09/29 00:37:07;;;;;;;;;;;;;;;-142.36;100.00;58987.19;6307130;22;19919;-42
2022/09/29 00:39:34;;;;;;;;;;;;;;;-142.36;100.00;58987.19;6331889;22;19923;-41
2022/09/29 00:42:01;;;;;;;;;;;;;;;-142.36;100.00;58987.19;6335031;22;19919;-42
2022/09/29 00:44:46;;;;;;;;;;;;;;;-142.36;100.00;58987.19;6334894;22;20324;-42
2022/09/29 00:47:17;;;;;;;;;;;;;;;-142.36;100.00;58987.19;6334491;22;19921;-41
2022/09/29 00:49:47;;;;;;;;;;;;;;;-142.36;100.00;58987.19;6334381;22;19922;-41
2022/09/29 00:52:18;;;;;;;;;;;;;;;-142.36;100.00;58987.19;6332415;22;19930;-43
2022/09/29 00:54:48;;;;;;;;;;;;;;;-142.36;100.00;58987.19;6306748;22;19923;-41
2022/09/29 00:57:18;;;;;;;;;;;;;;;-142.36;100.00;58987.19;6334831;22;20391;-43
2022/09/29 00:59:48;;;;;;;;;;;;;;;-142.36;100.00;58987.19;6332413;22;19919;-42
2022/09/29 01:02:17;;;;;;;;;;;;;;;-142.36;100.00;58987.19;6334447;22;20005;-43
2022/09/29 01:04:45;;;;;;;;;;;;;;;-142.36;100.00;58987.19;6307072;22;19929;-41
2022/09/29 01:07:13;;;;;;;;;;;;;;;-142.36;100.00;58987.19;6332819;22;19919;-43
2022/09/29 01:09:41;;;;;;;;;;;;;;;-142.36;100.00;58987.19;6306265;22;19971;-41
2022/09/29 01:12:08;;;;;;;;;;;;;;;-142.36;100.00;58987.19;6333053;22;19976;-43
2022/09/29 01:14:37;;;;;;;;;;;;;;;-142.36;100.00;58987.19;6332203;22;20205;-43
2022/09/29 01:17:05;;;;;;;;;;;;;;;-142.36;100.00;58987.19;6332249;22;19922;-42
2022/09/29 01:19:40;;;;;;;;;;;;;;;-142.36;100.00;58987.19;6333376;22;19926;-42
2022/09/29 01:22:14;;;;;;;;;;;;;;;-142.36;100.00;58987.19;6331812;22;19987;-43
2022/09/29 01:24:56;;;;;;;;;;;;;;;-142.36;100.00;58987.19;6332727;22;20217;-41
2022/09/29 01:27:35;;;;;;;;;;;;;;;-142.36;100.00;58987.19;6305371;22;19930;-42
2022/09/29 01:30:08;;;;;;;;;;;;;;;-142.36;100.00;58987.19;6332878;22;19971;-42
2022/09/29 01:32:52;;;;;;;;;;;;;;;-142.36;100.00;58987.19;6332333;22;19928;-42
2022/09/29 01:35:23;;;;;;;;;;;;;;;-142.36;100.00;58987.19;6333499;22;19931;-43
2022/09/29 01:37:55;;;;;;;;;;;;;;;-142.36;100.00;58987.19;6333179;22;20006;-43
2022/09/29 01:40:27;;;;;;;;;;;;;;;-142.36;100.00;58987.19;6332149;22;19922;-42
2022/09/29 01:42:57;;;;;;;;;;;;;;;-142.36;100.00;58987.19;6334530;22;19929;-43
2022/09/29 01:45:29;;;;;;;;;;;;;;;-142.36;100.00;58987.19;6334279;22;20236;-42
2022/09/29 01:47:59;;;;;;;;;;;;;;;-142.36;100.00;58987.19;6329020;22;20331;-42
2022/09/29 01:50:30;;;;;;;;;;;;;;;-142.36;100.00;58987.19;6306221;22;19919;-43
2022/09/29 01:53:00;;;;;;;;;;;;;;;-142.36;100.00;58987.19;6334291;22;19918;-42
2022/09/29 01:55:29;;;;;;;;;;;;;;;-142.36;100.00;58987.19;6331736;22;20277;-42
2022/09/29 01:57:58;;;;;;;;;;;;;;;-142.36;100.00;58987.19;6334364;22;19941;-42
2022/09/29 02:00:30;;;;;;;;;;;;;;;-142.36;100.00;58987.19;6334039;22;19925;-42
2022/09/29 02:03:01;;;;;;;;;;;;;;;-142.36;100.00;58987.19;6332203;22;19918;-42
2022/09/29 02:05:39;;;;;;;;;;;;;;;-142.36;100.00;58987.19;6334453;22;19943;-42
2022/09/29 02:08:09;;;;;;;;;;;;;;;-142.36;100.00;58987.19;6334295;22;19922;-45
2022/09/29 02:10:37;;;;;;;;;;;;;;;-142.36;100.00;58987.19;6308815;22;19918;-42
2022/09/29 02:13:06;;;;;;;;;;;;;;;-142.36;100.00;58987.19;6336137;22;19975;-42
2022/09/29 02:15:35;;;;;;;;;;;;;;;-142.36;100.00;58987.19;6335622;22;19933;-43
2022/09/29 02:18:11;;;;;;;;;;;;;;;-142.36;100.00;58987.19;6336118;22;20324;-44
2022/09/29 02:20:38;;;;;;;;;;;;;;;-142.36;100.00;58987.19;6336219;22;19919;-44
2022/09/29 02:23:05;;;;;;;;;;;;;;;-142.36;100.00;58987.19;6334290;22;19963;-44
2022/09/29 02:25:35;;;;;;;;;;;;;;;-142.36;100.00;58987.19;6336296;22;19919;-43
2022/09/29 02:28:02;;;;;;;;;;;;;;;-142.36;100.00;58987.19;6336036;22;20351;-42
2022/09/29 02:30:29;;;;;;;;;;;;;;;-142.36;100.00;58987.19;6335975;22;19951;-42
2022/09/29 02:32:56;;;;;;;;;;;;;;;-142.36;100.00;58987.19;6334105;22;19950;-42
2022/09/29 02:35:29;;;;;;;;;;;;;;;-142.36;100.00;58987.19;6335943;22;20305;-43
2022/09/29 02:38:04;;;;;;;;;;;;;;;-142.36;100.00;58987.19;6335499;22;20324;-42
2022/09/29 02:40:49;;;;;;;;;;;;;;;-142.36;100.00;58987.19;6335951;22;20144;-42
2022/09/29 02:43:26;;;;;;;;;;;;;;;-142.36;100.00;58987.19;6335615;22;19918;-42
2022/09/29 02:46:01;;;;;;;;;;;;;;;-142.36;100.00;58987.19;6335997;22;19971;-42
2022/09/29 02:48:48;;;;;;;;;;;;;;;-142.36;100.00;58987.19;6308451;22;20233;-42
2022/09/29 02:51:20;;;;;;;;;;;;;;;-142.36;100.00;58987.19;6336097;22;19918;-42
2022/09/29 02:53:59;;;;;;;;;;;;;;;-142.36;100.00;58987.19;6335578;22;20343;-41
2022/09/29 02:56:29;;;;;;;;;;;;;;;-142.36;100.00;58987.19;6330548;22;19924;-43
2022/09/29 02:59:00;;;;;;;;;;;;;;;-142.36;100.00;58987.19;6303801;22;19919;-42
2022/09/29 03:01:30;;;;;;;;;;;;;;;-142.36;100.00;58987.19;6330235;22;19923;-41
2022/09/29 03:03:58;;;;;;;;;;;;;;;-142.36;100.00;58987.19;6330033;22;19918;-42
2022/09/29 03:06:27;;;;;;;;;;;;;;;-142.36;100.00;58987.19;6331641;22;20009;-41
2022/09/29 03:08:54;;;;;;;;;;;;;;;-142.36;100.00;58987.19;6331983;22;20331;-42
2022/09/29 03:11:21;;;;;;;;;;;;;;;-142.36;100.00;58987.19;6330610;22;19926;-44
2022/09/29 03:13:49;;;;;;;;;;;;;;;-142.36;100.00;58987.19;6333659;22;19918;-42
2022/09/29 03:16:16;;;;;;;;;;;;;;;-142.36;100.00;58987.19;6334138;22;20024;-43
2022/09/29 03:18:43;;;;;;;;;;;;;;;-142.36;100.00;58987.19;6303649;22;19926;-43
2022/09/29 03:21:10;;;;;;;;;;;;;;;-142.36;100.00;58987.19;6333854;22;19919;-43
2022/09/29 03:23:39;;;;;;;;;;;;;;;-142.36;100.00;58987.19;6333367;22;19919;-43
2022/09/29 03:26:06;;;;;;;;;;;;;;;-142.36;100.00;58987.19;6333249;22;20243;-42
2022/09/29 03:28:34;;;;;;;;;;;;;;;-142.36;100.00;58987.19;6305133;22;20116;-42
2022/09/29 03:31:04;;;;;;;;;;;;;;;-142.36;100.00;58987.19;6333836;22;19997;-42
2022/09/29 03:33:31;;;;;;;;;;;;;;;-142.36;100.00;58987.19;6333957;22;19919;-43
2022/09/29 03:35:59;;;;;;;;;;;;;;;-142.36;100.00;58987.19;6331453;22;19925;-43
2022/09/29 03:38:26;;;;;;;;;;;;;;;-142.36;100.00;58987.19;6333679;22;19930;-44
2022/09/29 03:40:54;;;;;;;;;;;;;;;-142.36;100.00;58987.19;6333662;22;19923;-43
2022/09/29 03:43:22;;;;;;;;;;;;;;;-142.36;100.00;58987.19;6331056;22;20364;-41
2022/09/29 03:45:49;;;;;;;;;;;;;;;-142.36;100.00;58987.19;6305365;22;20255;-42
2022/09/29 03:48:17;;;;;;;;;;;;;;;-142.36;100.00;58987.19;6333201;22;20341;-44
2022/09/29 03:50:45;;;;;;;;;;;;;;;-142.36;100.00;58987.19;6305135;22;19919;-44
2022/09/29 03:53:12;;;;;;;;;;;;;;;-142.36;100.00;58987.19;6335234;22;20342;-42
2022/09/29 03:55:40;;;;;;;;;;;;;;;-142.36;100.00;58987.19;6335022;22;19918;-42
2022/09/29 03:58:08;;;;;;;;;;;;;;;-142.36;100.00;58987.19;6335230;22;19930;-42
2022/09/29 04:00:35;;;;;;;;;;;;;;;-142.36;100.00;58987.19;6332981;22;19923;-42
2022/09/29 04:03:03;;;;;;;;;;;;;;;-142.36;100.00;58987.19;6335204;22;19919;-42
2022/09/29 04:05:30;;;;;;;;;;;;;;;-142.36;100.00;58987.19;6335260;22;19919;-42
2022/09/29 04:07:57;;;;;;;;;;;;;;;-142.36;100.00;58987.19;6332872;22;19974;-42
2022/09/29 04:10:24;;;;;;;;;;;;;;;-142.36;100.00;58987.19;6333745;22;20005;-42
2022/09/29 04:12:52;;;;;;;;;;;;;;;-142.36;100.00;58987.19;6335041;22;19919;-42
2022/09/29 04:15:20;;;;;;;;;;;;;;;-142.36;100.00;58987.19;6333577;22;20289;-43
2022/09/29 04:17:47;;;;;;;;;;;;;;;-142.36;100.00;58987.19;6335022;22;19923;-42
2022/09/29 04:20:14;;;;;;;;;;;;;;;-142.36;100.00;58987.19;6334470;22;20355;-42
2022/09/29 04:22:42;;;;;;;;;;;;;;;-142.36;100.00;58987.19;6334813;22;20225;-42
2022/09/29 04:25:09;;;;;;;;;;;;;;;-142.36;100.00;58987.19;6332273;22;19919;-43
2022/09/29 04:27:36;;;;;;;;;;;;;;;-142.36;100.00;58987.19;6335164;22;20328;-42
2022/09/29 04:30:04;;;;;;;;;;;;;;;-142.36;100.00;58987.19;6333580;22;20290;-42
2022/09/29 04:32:33;;;;;;;;;;;;;;;-142.36;100.00;58987.19;6332134;22;19918;-42
2022/09/29 04:35:00;;;;;;;;;;;;;;;-142.36;100.00;58987.19;6334859;22;19925;-42
2022/09/29 04:37:28;;;;;;;;;;;;;;;-142.36;100.00;58987.19;6331849;22;19922;-42
2022/09/29 04:39:55;;;;;;;;;;;;;;;-142.36;100.00;58987.19;6331755;22;19938;-44
2022/09/29 04:42:22;;;;;;;;;;;;;;;-142.36;100.00;58987.19;6304363;22;19923;-42
2022/09/29 04:44:50;;;;;;;;;;;;;;;-142.36;100.00;58987.19;6330480;22;20285;-42
2022/09/29 04:47:17;;;;;;;;;;;;;;;-142.36;100.00;58987.19;6333656;22;19927;-43
2022/09/29 04:49:46;;;;;;;;;;;;;;;-142.36;100.00;58987.19;6330871;22;19926;-42
2022/09/29 04:52:14;;;;;;;;;;;;;;;-142.36;100.00;58987.19;6333542;22;20302;-43
2022/09/29 04:54:41;;;;;;;;;;;;;;;-142.36;100.00;58987.19;6332848;22;20211;-42
2022/09/29 04:57:09;;;;;;;;;;;;;;;-142.36;100.00;58987.19;6331844;22;19922;-43
2022/09/29 04:59:36;;;;;;;;;;;;;;;-142.36;100.00;58987.19;6333240;22;20409;-43
2022/09/29 05:02:03;;;;;;;;;;;;;;;-142.36;100.00;58987.19;6334400;22;20208;-43
2022/09/29 05:04:31;;;;;;;;;;;;;;;-142.36;100.00;58987.19;6330799;22;19922;-45
2022/09/29 05:06:59;;;;;;;;;;;;;;;-142.36;100.00;58987.19;6333736;22;19919;-43
2022/09/29 05:09:27;;;;;;;;;;;;;;;-142.36;100.00;58987.19;6333519;22;19932;-44
2022/09/29 05:11:54;;;;;;;;;;;;;;;-142.36;100.00;58987.19;6333244;22;19979;-43
2022/09/29 05:14:21;;;;;;;;;;;;;;;-142.36;100.00;58987.19;6331311;22;19946;-43
2022/09/29 05:16:48;;;;;;;;;;;;;;;-142.36;100.00;58987.19;6333024;22;19945;-43
2022/09/29 05:19:15;;;;;;;;;;;;;;;-142.36;100.00;58987.19;6333611;22;19987;-43
2022/09/29 05:21:42;;;;;;;;;;;;;;;-142.36;100.00;58987.19;6331533;22;20398;-44
2022/09/29 05:24:11;;;;;;;;;;;;;;;-142.36;100.00;58987.19;6333409;22;19923;-43
2022/09/29 05:26:38;;;;;;;;;;;;;;;-142.36;100.00;58987.19;6333133;22;19918;-43
2022/09/29 05:29:06;;;;;;;;;;;;;;;-142.36;100.00;58987.19;6304399;22;19968;-44
2022/09/29 05:31:33;;;;;;;;;;;;;;;-142.36;100.00;58987.19;6332759;22;20009;-43
2022/09/29 05:34:00;;;;;;;;;;;;;;;-142.36;100.00;58987.19;6333359;22;19925;-43
2022/09/29 05:36:28;;;;;;;;;;;;;;;-142.36;100.00;58987.19;6333244;22;20323;-43
2022/09/29 05:38:55;;;;;;;;;;;;;;;-142.36;100.00;58987.19;6331182;22;20363;-43
2022/09/29 05:41:24;;;;;;;;;;;;;;;-142.36;100.00;58987.19;6333372;22;19972;-43
2022/09/29 05:43:55;;;;;;;;;;;;;;;-142.36;100.00;58987.19;6333455;22;19964;-43
2022/09/29 05:46:22;;;;;;;;;;;;;;;-142.36;100.00;58987.19;6331182;22;19926;-43
2022/09/29 05:48:51;;;;;;;;;;;;;;;-142.36;100.00;58987.19;6334975;22;19922;-45
2022/09/29 05:51:19;;;;;;;;;;;;;;;-142.36;100.00;58987.19;6334005;22;19930;-43
2022/09/29 05:53:46;;;;;;;;;;;;;;;-142.36;100.00;58987.19;6332543;22;19949;-44
2022/09/29 05:56:14;;;;;;;;;;;;;;;-142.36;100.00;58987.19;6334298;22;20368;-43
2022/09/29 05:58:43;;;;;;;;;;;;;;;-142.36;100.00;58987.19;6334407;22;19925;-43
2022/09/29 06:01:11;;;;;;;;;;;;;;;-142.36;100.00;58987.19;6333177;22;20398;-43
2022/09/29 06:03:38;;;;;;;;;;;;;;;-142.36;100.00;58987.19;6333981;22;19919;-43
2022/09/29 06:06:08;;;;;;;;;;;;;;;-142.36;100.00;58987.19;6334182;22;20259;-44
2022/09/29 06:08:35;;;;;;;;;;;;;;;-142.36;100.00;58987.19;6334402;22;20022;-43
2022/09/29 06:11:04;;;;;;;;;;;;;;;-142.36;100.00;58987.19;6332597;22;20252;-43
2022/09/29 06:13:31;;;;;;;;;;;;;;;-142.36;100.00;58987.19;6334067;22;19919;-43
2022/09/29 06:16:00;;;;;;;;;;;;;;;-142.36;100.00;58987.19;6334136;22;20298;-43
2022/09/29 06:18:27;;;;;;;;;;;;;;;-142.36;100.00;58987.19;6332186;22;19961;-44
2022/09/29 06:20:54;;;;;;;;;;;;;;;-142.36;100.00;58987.19;6333962;22;19925;-44
2022/09/29 06:23:21;;;;;;;;;;;;;;;-142.36;100.00;58987.19;6334497;22;19922;-45
2022/09/29 06:25:48;;;;;;;;;;;;;;;-142.36;100.00;58987.19;6332735;22;20320;-43
2022/09/29 06:28:15;;;;;;;;;;;;;;;-142.36;100.00;58987.19;6334056;22;20223;-43
2022/09/29 06:30:43;;;;;;;;;;;;;;;-142.36;100.00;58987.19;6334490;22;19925;-43
2022/09/29 06:33:11;;;;;;;;;;;;;;;-142.36;100.00;58987.19;6334046;22;20231;-44
2022/09/29 06:38:23;;;;;;;;;;;;;;;-142.36;100.00;58987.19;6334520;22;19971;-43
2022/09/29 06:40:50;;;;;;;;;;;;;;;-142.36;100.00;58987.19;6332024;22;20393;-44
2022/09/29 06:43:17;;;;;;;;;;;;;;;-142.36;100.00;58987.19;6334554;22;19994;-43
2022/09/29 06:45:45;;;;;;;;;;;;;;;-142.36;100.00;58987.19;6334193;22;20005;-43
2022/09/29 06:48:13;;;;;;;;;;;;;;;-142.36;100.00;58987.19;6333089;22;19926;-44
2022/09/29 06:50:41;;;;;;;;;;;;;;;-142.36;100.00;58987.19;6332187;22;19919;-43
2022/09/29 06:53:08;;;;;;;;;;;;;;;-142.36;100.00;58987.19;6334466;22;20385;-43
2022/09/29 06:55:35;;;;;;;;;;;;;;;-142.36;100.00;58987.19;6335762;22;20393;-45
2022/09/29 06:58:02;;;;;;;;;;;;;;;-142.36;100.00;58987.19;6333417;22;20324;-43
2022/09/29 07:00:30;;;;;;;;;;;;;;;-142.36;100.00;58987.19;6336099;22;19950;-43
2022/09/29 07:02:57;;;;;;;;;;;;;;;-142.36;100.00;58987.19;6335705;22;19964;-43
2022/09/29 07:05:25;;;;;;;;;;;;;;;-142.36;100.00;58987.19;6333627;22;19922;-44
2022/09/29 07:07:53;;;;;;;;;;;;;;;-142.36;100.00;58987.19;6335425;22;20282;-43
2022/09/29 07:10:21;;;;;;;;;;;;;;;-142.36;100.00;58987.19;6335931;22;19918;-44
2022/09/29 07:12:48;;;;;;;;;;;;;;;-142.36;100.00;58987.19;6335017;22;20330;-43
2022/09/29 07:15:15;;;;;;;;;;;;;;;-142.36;100.00;58987.19;6335662;22;20093;-45
2022/09/29 07:17:42;;;;;;;;;;;;;;;-142.36;100.00;58987.19;6335306;22;20298;-44
2022/09/29 07:20:10;;;;;;;;;;;;;;;-142.36;100.00;58987.19;6335833;22;19923;-43
2022/09/29 07:22:38;;;;;;;;;;;;;;;-142.36;100.00;58987.19;6333196;22;20282;-43
2022/09/29 07:25:06;;;;;;;;;;;;;;;-142.36;100.00;58987.19;6335804;22;20327;-43
2022/09/29 07:27:34;;;;;;;;;;;;;;;-142.36;100.00;58987.19;6335392;22;20324;-43
2022/09/29 07:30:01;;;;;;;;;;;;;;;-142.36;100.00;58987.19;6306067;22;19919;-44
2022/09/29 07:32:31;;;;;;;;;;;;;;;-142.36;100.00;58987.19;6334967;22;20332;-43
2022/09/29 07:34:58;;;;;;;;;;;;;;;-142.36;100.00;58987.19;6335417;22;19922;-46
2022/09/29 07:37:25;;;;;;;;;;;;;;;-142.36;100.00;58987.19;6333738;22;19919;-46
2022/09/29 07:39:54;;;;;;;;;;;;;;;-142.36;100.00;58987.19;6335056;22;19923;-43
2022/09/29 07:42:21;;;;;;;;;;;;;;;-142.36;100.00;58987.19;6335346;22;19971;-44
2022/09/29 07:44:55;;;;;;;;;;;;;;;-142.36;100.00;58987.19;6334040;22;20005;-46
2022/09/29 07:47:22;;;;;;;;;;;;;;;-142.36;100.00;58987.19;6335315;22;19988;-44
2022/09/29 07:49:49;;;;;;;;;;;;;;;-142.36;100.00;58987.19;6334942;22;19950;-43
2022/09/29 07:52:16;;;;;;;;;;;;;;;-142.36;100.00;58987.19;6335309;22;19918;-44
2022/09/29 07:54:43;;;;;;;;;;;;;;;-142.36;100.00;58987.19;6332313;22;19918;-43
2022/09/29 07:57:12;;;;;;;;;;;;;;;-142.36;100.00;58987.19;6335551;22;19919;-43
2022/09/29 07:59:39;;;;;;;;;;;;;;;-142.36;100.00;58987.19;6335659;22;19919;-44
2022/09/29 08:02:06;;;;;;;;;;;;;;;-142.36;100.00;58987.19;6332881;22;19919;-44
2022/09/29 08:04:34;;;;;;;;;;;;;;;-142.36;100.00;58987.19;6335289;22;20005;-43
2022/09/29 08:07:01;;;;;;;;;;;;;;;-142.36;100.00;58987.19;6334116;22;20005;-43
2022/09/29 08:09:28;;;;;;;;;;;;;;;-142.36;100.00;58987.19;6333754;22;19987;-44
2022/09/29 08:11:55;;;;;;;;;;;;;;;-142.36;100.00;58987.19;6334771;22;19945;-43
2022/09/29 08:14:24;;;;;;;;;;;;;;;-142.36;100.00;58987.19;6335039;22;19926;-44
2022/09/29 08:16:51;;;;;;;;;;;;;;;-142.36;100.00;58987.19;6335215;22;19919;-45
2022/09/29 08:19:18;;;;;;;;;;;;;;;-142.36;100.00;58987.19;6332699;22;19922;-35
2022/09/29 08:21:48;;;;;;;;;;;;;;;-142.36;100.00;58987.19;6335301;22;19946;-36
2022/09/29 08:24:16;;;;;;;;;;;;;;;-142.36;100.00;58987.19;6335481;22;20339;-39
2022/09/29 08:26:44;;;;;;;;;;;;;;;-142.36;100.00;58987.19;6332590;22;20001;-36
2022/09/29 08:33:14;;;;;;;;;;;;;;;12.63;60.67;96817.66;5155908;27;19964;-35
2022/09/29 08:35:41;;;;;;;;;;;;;;;10.08;82.25;96832.19;5147550;27;19949;-34
2022/09/29 08:38:08;;;;;;;;;;;;;;;9.68;89.95;96834.56;5146691;27;20354;-35
2022/09/29 08:40:35;;;;;;;;;;;;;;;9.57;92.84;96831.09;5127291;27;20290;-35
2022/09/29 08:43:10;;;;;;;;;;;;;;;9.50;97.32;96825.50;5148272;27;19930;-35
2022/09/29 08:45:41;;;;;;;;;;;;;;;9.36;89.56;96822.31;5147822;27;19924;-35
2022/09/29 08:48:11;;;;;;;;;;;;;;;9.43;92.75;96824.31;5145446;27;19945;-35
2022/09/29 08:50:43;;;;;;;;;;;;;;;9.53;92.97;96824.44;5147387;27;19923;-36
2022/09/29 08:53:12;;;;;;;;;;;;;;;9.46;95.01;96825.88;5147054;27;20045;-35
2022/09/29 08:55:43;;;;;;;;;;;;;;;9.58;100.00;96828.38;5145449;27;19923;-35
2022/09/29 08:58:13;;;;;;;;;;;;;;;9.84;100.00;96828.94;5147728;27;19984;-35
2022/09/29 09:00:43;;;;;;;;;;;;;;;9.77;94.41;96830.38;5147322;27;19927;-35
2022/09/29 09:03:14;;;;;;;;;;;;;;;9.87;96.84;96834.75;5145557;27;19923;-35
2022/09/29 09:05:49;;;;;;;;;;;;;;;9.70;99.28;96837.06;5146306;27;20384;-36
2022/09/29 09:08:21;;;;;;;;;;;;;;;9.47;100.00;96849.38;5145072;27;19930;-38
2022/09/29 09:10:51;;;;;;;;;;;;;;;9.47;100.00;96845.91;5144835;27;19927;-37
2022/09/29 09:13:30;;;;;;;;;;;;;;;9.68;99.43;96846.84;5146590;27;20030;-36
2022/09/29 09:16:07;;;;;;;;;;;;;;;9.18;92.42;96852.59;5144264;27;19927;-38
2022/09/29 09:18:49;;;;;;;;;;;;;;;9.55;92.83;96854.03;5146758;27;20030;-38
2022/09/29 09:21:19;;;;;;;;;;;;;;;9.59;95.32;96856.28;5140935;27;19923;-35
2022/09/29 09:23:53;;;;;;;;;;;;;;;9.86;96.63;96854.13;5144602;27;19923;-39
2022/09/29 09:26:21;;;;;;;;;;;;;;;9.76;92.61;96852.31;5122277;28;19924;-36
2022/09/29 09:28:53;;;;;;;;;;;;;;;9.92;93.67;96858.03;5140844;27;19927;-36
2022/09/29 09:31:24;;;;;;;;;;;;;;;9.68;90.09;96852.09;5146012;27;19924;-36
2022/09/29 09:33:54;;;;;;;;;;;;;;;9.71;90.28;96852.72;5145811;27;19930;-38
2022/09/29 09:36:26;;;;;;;;;;;;;;;9.61;94.78;96845.66;5144742;27;19924;-35
2022/09/29 09:38:55;;;;;;;;;;;;;;;9.50;94.00;96843.91;5146197;27;20025;-36
2022/09/29 09:41:23;;;;;;;;;;;;;;;9.58;98.96;96843.28;5146676;27;20022;-36
2022/09/29 09:43:53;;;;;;;;;;;;;;;9.65;95.08;96849.72;5132911;27;19924;-36
2022/09/29 09:46:22;;;;;;;;;;;;;;;9.77;93.83;96849.56;5132665;27;19976;-35
2022/09/29 09:48:54;;;;;;;;;;;;;;;9.55;91.37;96849.59;5129742;27;19927;-38
2022/09/29 09:51:29;;;;;;;;;;;;;;;9.82;91.98;96854.47;5131494;27;20014;-37
2022/09/29 09:53:59;;;;;;;;;;;;;;;9.83;92.04;96854.34;5132373;27;19976;-36
2022/09/29 09:56:37;;;;;;;;;;;;;;;9.84;90.36;96860.44;5130772;27;20005;-42
2022/09/29 09:59:08;;;;;;;;;;;;;;;9.90;90.21;96859.94;5132216;27;19974;-36
2022/09/29 10:01:36;;;;;;;;;;;;;;;10.09;91.28;96860.13;5130744;27;19923;-36
2022/09/29 10:04:03;;;;;;;;;;;;;;;9.92;92.74;96855.41;5130171;27;19959;-36
2022/09/29 10:06:32;;;;;;;;;;;;;;;9.92;95.49;96863.31;5130266;27;19923;-36
2022/09/29 10:08:59;;;;;;;;;;;;;;;9.79;95.76;96868.69;5131813;27;20409;-36
2022/09/29 10:11:27;;;;;;;;;;;;;;;9.90;94.38;96868.69;5125725;27;19927;-50
2022/09/29 10:13:58;;;;;;;;;;;;;;;9.94;94.36;96877.97;5120127;27;19924;-41
2022/09/29 10:16:28;;;;;;;;;;;;;;;10.07;95.72;96865.50;5128437;27;19966;-45
2022/09/29 10:18:56;;;;;;;;;;;;;;;10.12;93.52;96866.00;5122716;27;20015;-44
2022/09/29 10:21:23;;;;;;;;;;;;;;;10.15;92.30;96872.78;5124828;27;19923;-41
2022/09/29 10:23:52;;;;;;;;;;;;;;;10.53;95.28;96862.59;5128548;27;20023;-36
2022/09/29 10:26:24;;;;;;;;;;;;;;;10.64;94.30;96866.03;5125655;27;19981;-43
2022/09/29 10:28:54;;;;;;;;;;;;;;;10.90;95.34;96869.13;5127240;27;20109;-36
2022/09/29 10:31:23;;;;;;;;;;;;;;;10.83;91.59;96868.81;5129239;27;19966;-37
2022/09/29 10:33:52;;;;;;;;;;;;;;;10.89;91.24;96868.31;5127028;27;19931;-49
2022/09/29 10:36:20;;;;;;;;;;;;;;;10.62;90.02;96865.31;5125312;27;20217;-39
2022/09/29 10:38:49;;;;;;;;;;;;;;;10.55;88.47;96868.59;5121215;27;19935;-36
2022/09/29 10:41:18;;;;;;;;;;;;;;;10.56;90.07;96875.50;5124826;27;20409;-43
2022/09/29 10:43:47;;;;;;;;;;;;;;;10.45;89.80;96868.50;5101427;28;19920;-38
2022/09/29 10:46:32;;;;;;;;;;;;;;;10.49;91.19;96863.81;5117586;27;20347;-38
2022/09/29 10:49:10;;;;;;;;;;;;;;;10.83;91.48;96870.59;5121608;27;20018;-40
2022/09/29 10:51:37;;;;;;;;;;;;;;;10.91;90.16;96874.28;5115834;27;19924;-38
2022/09/29 10:54:08;;;;;;;;;;;;;;;11.38;86.75;96868.47;5114894;27;19970;-52
2022/09/29 10:56:37;;;;;;;;;;;;;;;11.39;92.01;96864.03;5119232;27;20379;-39
2022/09/29 10:59:04;;;;;;;;;;;;;;;11.61;88.11;96871.75;5122914;27;19971;-38
2022/09/29 11:01:33;;;;;;;;;;;;;;;11.69;85.24;96868.44;5125557;27;20374;-38
2022/09/29 11:04:02;;;;;;;;;;;;;;;11.35;84.86;96881.06;5123468;27;19930;-38
2022/09/29 11:06:31;;;;;;;;;;;;;;;11.43;85.30;96875.97;5123005;27;20394;-38
2022/09/29 11:09:00;;;;;;;;;;;;;;;11.39;85.36;96872.75;5105383;27;19924;-42
2022/09/29 11:11:28;;;;;;;;;;;;;;;11.72;87.20;96869.03;5118340;27;20290;-38
2022/09/29 11:13:58;;;;;;;;;;;;;;;11.44;86.37;96875.00;5124401;27;19923;-38
2022/09/29 11:16:29;;;;;;;;;;;;;;;11.54;85.76;96870.63;5129601;27;20010;-41
2022/09/29 11:18:59;;;;;;;;;;;;;;;11.29;88.49;96884.22;5123599;27;19927;-38
2022/09/29 11:21:47;;;;;;;;;;;;;;;11.19;86.69;96875.41;5128236;27;19958;-38
2022/09/29 11:24:20;;;;;;;;;;;;;;;11.00;89.46;96881.41;5118858;27;19981;-38
2022/09/29 11:26:55;;;;;;;;;;;;;;;11.00;89.40;96885.84;5127400;27;20306;-38
2022/09/29 11:29:36;;;;;;;;;;;;;;;10.83;92.10;96887.25;5107207;27;19923;-51
2022/09/29 11:32:19;;;;;;;;;;;;;;;10.68;92.23;96890.31;5122207;27;19949;-41
2022/09/29 11:34:58;;;;;;;;;;;;;;;10.59;93.30;96888.41;5122450;27;19927;-47
2022/09/29 11:37:35;;;;;;;;;;;;;;;10.57;93.80;96887.69;5125251;27;20287;-38
2022/09/29 11:40:10;;;;;;;;;;;;;;;10.64;94.25;96888.84;5122297;27;20357;-38
2022/09/29 11:42:44;;;;;;;;;;;;;;;10.38;96.49;96888.38;5126129;27;19984;-38
2022/09/29 11:45:17;;;;;;;;;;;;;;;10.37;96.62;96883.25;5108667;27;19932;-37
2022/09/29 11:47:58;;;;;;;;;;;;;;;10.45;95.15;96891.31;5125338;27;19931;-36
2022/09/29 11:50:36;;;;;;;;;;;;;;;10.47;95.65;96892.06;5123124;27;19976;-37
2022/09/29 11:53:15;;;;;;;;;;;;;;;10.45;97.60;96888.69;5122241;27;19924;-37
2022/09/29 11:55:53;;;;;;;;;;;;;;;10.42;98.07;96895.03;5124037;27;20335;-37
2022/09/29 11:58:31;;;;;;;;;;;;;;;10.27;98.13;96903.34;5120784;27;19923;-53
2022/09/29 12:01:06;;;;;;;;;;;;;;;10.42;100.00;96895.03;5117694;27;19980;-37
2022/09/29 12:03:41;;;;;;;;;;;;;;;10.40;100.00;96890.88;5119775;27;20394;-37
2022/09/29 12:06:28;;;;;;;;;;;;;;;10.62;100.00;96885.53;5121712;27;20745;-37
2022/09/29 12:09:01;;;;;;;;;;;;;;;10.51;100.00;96898.72;5122951;27;19929;-36
2022/09/29 12:11:34;;;;;;;;;;;;;;;10.64;100.00;96889.69;5125909;27;20023;-39
2022/09/29 12:14:05;;;;;;;;;;;;;;;10.74;98.81;96885.38;5124180;27;19962;-40
2022/09/29 12:16:37;;;;;;;;;;;;;;;10.81;99.58;96893.59;5121994;27;20451;-46
2022/09/29 12:19:08;;;;;;;;;;;;;;;10.66;98.59;96884.31;5122797;27;19928;-41
2022/09/29 12:21:37;;;;;;;;;;;;;;;10.69;98.06;96887.53;5125840;27;19935;-39
2022/09/29 12:24:06;;;;;;;;;;;;;;;10.50;99.53;96889.16;5126137;27;20378;-38
2022/09/29 12:26:34;;;;;;;;;;;;;;;10.72;100.00;96892.56;5124327;27;20014;-38
2022/09/29 12:29:03;;;;;;;;;;;;;;;10.69;100.00;96890.19;5124411;27;19947;-40
2022/09/29 12:31:33;;;;;;;;;;;;;;;10.81;99.02;96891.81;5123090;28;19927;-48
2022/09/29 12:34:04;;;;;;;;;;;;;;;10.77;100.00;96886.94;5122836;28;19923;-38
2022/09/29 12:36:44;;;;;;;;;;;;;;;10.93;100.00;96897.84;5124880;28;19929;-40
2022/09/29 12:39:26;;;;;;;;;;;;;;;10.91;100.00;96907.66;5124585;28;19988;-39
2022/09/29 12:41:55;;;;;;;;;;;;;;;10.66;100.00;96902.72;5122707;28;19923;-42
2022/09/29 12:44:27;;;;;;;;;;;;;;;10.76;100.00;96903.69;5106932;28;20297;-38
2022/09/29 12:46:59;;;;;;;;;;;;;;;10.53;100.00;96909.94;5107145;28;19935;-39